createdAt,value
2024-05-09T00:01:49.772Z,101939.77
2024-05-09T00:04:37.671Z,101934.27
2024-05-09T00:07:24.577Z,101936.95
2024-05-09T00:10:18.282Z,101933.58
2024-05-09T00:13:11.869Z,101929.47
2024-05-09T00:15:59.484Z,101929.98
2024-05-09T00:18:45.967Z,101927.69
2024-05-09T00:21:32.686Z,101928.20
2024-05-09T00:24:21.547Z,101916.59
2024-05-09T00:27:09.042Z,101915.17
2024-05-09T00:29:57.007Z,101913.55
2024-05-09T00:32:43.879Z,101920.14
2024-05-09T00:35:30.771Z,101923.84
2024-05-09T00:38:17.903Z,101926.48
2024-05-09T00:41:04.228Z,101920.41
2024-05-09T00:43:51.679Z,101917.23
2024-05-09T00:46:38.706Z,101909.45
2024-05-09T00:49:26.815Z,101909.81
2024-05-09T00:52:13.617Z,101905.17
2024-05-09T00:55:01.021Z,101899.62
2024-05-09T00:57:47.979Z,101903.12
2024-05-09T01:00:39.354Z,101912.16
2024-05-09T01:03:28.077Z,101918.16
2024-05-09T01:06:15.011Z,101915.27
2024-05-09T01:09:02.099Z,101922.19
2024-05-09T01:11:48.693Z,101926.23
2024-05-09T01:14:37.334Z,101928.52
2024-05-09T01:17:25.288Z,101930.27
2024-05-09T01:20:19.876Z,101927.91
2024-05-09T01:23:11.190Z,101925.37
2024-05-09T01:25:58.576Z,101921.29
2024-05-09T01:28:45.366Z,101923.65
2024-05-09T01:31:32.123Z,101916.04
2024-05-09T01:34:19.055Z,101914.30
2024-05-09T01:37:05.786Z,101908.83
2024-05-09T01:39:52.521Z,101913.66
2024-05-09T01:42:39.259Z,101915.66
2024-05-09T01:45:25.916Z,101909.63
2024-05-09T01:48:12.803Z,101900.77
2024-05-09T01:51:00.156Z,101902.39
2024-05-09T01:53:47.057Z,101899.40
2024-05-09T01:56:33.564Z,101900.52
2024-05-09T01:59:20.405Z,101896.13
2024-05-09T02:02:07.714Z,101894.39
2024-05-09T02:04:54.253Z,101897.45
2024-05-09T02:07:40.923Z,101898.91
2024-05-09T02:10:32.477Z,101905.71
2024-05-09T02:13:20.073Z,101913.91
2024-05-09T02:16:14.828Z,101911.27
2024-05-09T02:19:02.042Z,101903.48
2024-05-09T02:21:48.840Z,101897.29
2024-05-09T02:24:35.742Z,101899.82
2024-05-09T02:27:22.079Z,101899.14
2024-05-09T02:30:18.719Z,101901.91
2024-05-09T02:33:14.391Z,101910.64
2024-05-09T02:36:03.211Z,101910.88
2024-05-09T02:38:49.831Z,101909.11
2024-05-09T02:41:36.773Z,101905.20
2024-05-09T02:44:23.583Z,101907.17
2024-05-09T02:47:10.681Z,101906.11
2024-05-09T02:49:57.822Z,101905.42
2024-05-09T02:52:44.785Z,101904.56
2024-05-09T02:55:31.625Z,101902.61
2024-05-09T02:58:18.369Z,101901.01
2024-05-09T03:01:05.136Z,101898.84
2024-05-09T03:03:52.375Z,101902.02
2024-05-09T03:06:42.964Z,101904.48
2024-05-09T03:09:29.393Z,101908.70
2024-05-09T03:12:19.996Z,101910.98
2024-05-09T03:15:07.021Z,101912.95
2024-05-09T03:17:53.525Z,101916.31
2024-05-09T03:20:43.821Z,101916.35
2024-05-09T03:23:30.686Z,101919.92
2024-05-09T03:26:18.718Z,101927.20
2024-05-09T03:29:06.166Z,101928.95
2024-05-09T03:31:53.017Z,101928.42
2024-05-09T03:34:40.057Z,101924.52
2024-05-09T03:37:26.826Z,101923.08
2024-05-09T03:40:20.482Z,101931.92
2024-05-09T03:43:10.522Z,101932.02
2024-05-09T03:45:58.108Z,101933.21
2024-05-09T03:48:45.127Z,101937.24
2024-05-09T03:51:31.980Z,101936.64
2024-05-09T03:54:18.738Z,101939.27
2024-05-09T03:57:05.357Z,101940.30
2024-05-09T03:59:52.675Z,101938.63
2024-05-09T04:02:47.624Z,101945.02
2024-05-09T04:05:34.974Z,101945.16
2024-05-09T04:08:21.876Z,101947.05
2024-05-09T04:11:11.192Z,101946.26
2024-05-09T04:13:58.615Z,101951.86
2024-05-09T04:16:45.435Z,101957.99
2024-05-09T04:19:32.036Z,101959.71
2024-05-09T04:22:19.547Z,101958.73
2024-05-09T04:25:06.398Z,101952.14
2024-05-09T04:27:55.770Z,101954.85
2024-05-09T04:30:43.229Z,101952.09
2024-05-09T04:33:30.715Z,101957.11
2024-05-09T04:36:17.241Z,101956.72
2024-05-09T04:39:04.276Z,101956.30
2024-05-09T04:41:53.353Z,101956.98
2024-05-09T04:44:43.566Z,101953.40
2024-05-09T04:47:30.634Z,101955.35
2024-05-09T04:53:28.029Z,101959.59
2024-05-09T04:56:17.193Z,101959.67
2024-05-09T05:02:28.607Z,101969.08
2024-05-09T05:05:28.049Z,101969.93
2024-05-09T05:08:47.135Z,101974.74
2024-05-09T05:11:35.173Z,101971.57
2024-05-09T05:14:24.512Z,101970.58
2024-05-09T05:17:13.162Z,101970.45
2024-05-09T05:20:02.400Z,101973.04
2024-05-09T05:22:49.402Z,101973.03
2024-05-09T05:25:37.201Z,101977.05
2024-05-09T05:28:24.334Z,101973.77
2024-05-09T05:31:11.084Z,101972.63
2024-05-09T05:33:58.320Z,101972.92
2024-05-09T05:36:45.521Z,101971.25
2024-05-09T05:39:32.275Z,101972.40
2024-05-09T05:42:19.063Z,101966.98
2024-05-09T05:45:09.911Z,101971.42
2024-05-09T05:47:57.230Z,101970.32
2024-05-09T05:50:44.463Z,101973.08
2024-05-09T05:53:31.795Z,101969.59
2024-05-09T05:56:18.558Z,101966.64
2024-05-09T05:59:05.618Z,101966.09
2024-05-09T06:01:52.432Z,101967.46
2024-05-09T06:04:39.868Z,101969.20
2024-05-09T06:07:26.996Z,101973.65
2024-05-09T06:10:21.017Z,101970.52
2024-05-09T06:13:15.670Z,101970.00
2024-05-09T06:16:06.027Z,101969.85
2024-05-09T06:18:53.346Z,101970.27
2024-05-09T06:21:40.124Z,101975.83
2024-05-09T06:24:27.996Z,101977.20
2024-05-09T06:27:14.793Z,101974.87
2024-05-09T06:30:02.565Z,101975.16
2024-05-09T06:32:49.764Z,101978.30
2024-05-09T06:35:40.210Z,101977.05
2024-05-09T06:38:28.407Z,101979.67
2024-05-09T06:41:17.232Z,101978.23
2024-05-09T06:44:16.323Z,101983.46
2024-05-09T06:47:03.819Z,101985.23
2024-05-09T06:50:27.911Z,101988.41
2024-05-09T06:53:42.600Z,101988.41
2024-05-09T06:56:29.895Z,101990.93
2024-05-09T06:59:22.574Z,101993.69
2024-05-09T07:02:19.999Z,101996.93
2024-05-09T07:05:17.903Z,101996.04
2024-05-09T07:08:26.324Z,101995.64
2024-05-09T07:11:41.843Z,101994.36
2024-05-09T07:14:49.187Z,101992.04
2024-05-09T07:18:18.347Z,101992.38
2024-05-09T07:21:07.211Z,101997.05
2024-05-09T07:24:17.966Z,101996.55
2024-05-09T07:27:16.876Z,101997.90
2024-05-09T07:30:33.317Z,101999.42
2024-05-09T07:33:41.386Z,102000.71
2024-05-09T07:36:30.070Z,102000.90
2024-05-09T07:42:41.995Z,102011.52
2024-05-09T07:45:51.715Z,102012.98
2024-05-09T07:53:17.149Z,102018.91
2024-05-09T07:55:06.844Z,102021.48
2024-05-09T08:01:47.352Z,102028.98
2024-05-09T08:04:47.839Z,102037.60
2024-05-09T08:07:50.488Z,102036.62
2024-05-09T08:10:56.443Z,102037.73
2024-05-09T08:13:45.540Z,102043.33
2024-05-09T08:16:54.852Z,102042.45
2024-05-09T08:19:42.444Z,102047.59
2024-05-09T08:25:53.694Z,102046.09
2024-05-09T08:28:40.966Z,102047.82
2024-05-09T08:31:41.182Z,102050.74
2024-05-09T08:34:35.217Z,102052.29
2024-05-09T08:37:38.757Z,102051.63
2024-05-09T08:40:37.503Z,102054.35
2024-05-09T08:43:38.999Z,102048.59
2024-05-09T08:46:33.447Z,102048.52
2024-05-09T08:49:29.935Z,102052.05
2024-05-09T08:52:17.975Z,102051.96
2024-05-09T08:55:08.505Z,102048.87
2024-05-09T08:58:02.210Z,102054.81
2024-05-09T09:00:49.702Z,102056.86
2024-05-09T09:03:38.663Z,102056.24
2024-05-09T09:06:27.642Z,102057.56
2024-05-09T09:09:14.851Z,102060.27
2024-05-09T09:12:11.885Z,102060.04
2024-05-09T09:15:03.644Z,102060.45
2024-05-09T09:18:11.576Z,102054.25
2024-05-09T09:24:13.674Z,102048.56
2024-05-09T09:27:05.232Z,102046.20
2024-05-09T09:29:52.000Z,102047.73
2024-05-09T09:32:38.767Z,102044.18
2024-05-09T09:35:35.831Z,102045.47
2024-05-09T09:39:16.638Z,102041.46
2024-05-09T09:42:05.242Z,102040.27
2024-05-09T09:45:02.094Z,102038.84
2024-05-09T09:48:10.750Z,102041.39
2024-05-09T09:51:14.002Z,102038.84
2024-05-09T09:54:08.776Z,102037.40
2024-05-09T09:57:06.028Z,102042.05
2024-05-09T10:00:11.592Z,102041.11
2024-05-09T10:03:02.530Z,102039.09
2024-05-09T10:05:49.933Z,102040.48
2024-05-09T10:08:37.919Z,102037.88
2024-05-09T10:11:29.575Z,102038.45
2024-05-09T10:14:23.513Z,102035.68
2024-05-09T10:17:11.450Z,102029.32
2024-05-09T10:20:14.807Z,102025.14
2024-05-09T10:23:35.297Z,102021.50
2024-05-09T10:26:41.971Z,102018.52
2024-05-09T10:29:29.111Z,102019.10
2024-05-09T10:35:33.652Z,102019.06
2024-05-09T10:38:21.443Z,102022.02
2024-05-09T10:41:11.176Z,102017.63
2024-05-09T10:43:57.658Z,102020.29
2024-05-09T10:47:03.631Z,102020.02
2024-05-09T10:50:15.446Z,102022.19
2024-05-09T10:53:11.929Z,102017.55
2024-05-09T10:56:07.117Z,102023.17
2024-05-09T10:58:58.293Z,102030.02
2024-05-09T11:02:29.216Z,102030.23
2024-05-09T11:05:16.532Z,102027.16
2024-05-09T11:08:03.916Z,102024.27
2024-05-09T11:10:52.780Z,102018.05
2024-05-09T11:13:42.689Z,102017.20
2024-05-09T11:16:29.518Z,102018.16
2024-05-09T11:19:19.724Z,102017.34
2024-05-09T11:22:07.810Z,102015.11
2024-05-09T11:24:56.644Z,102013.13
2024-05-09T11:27:43.845Z,102010.85
2024-05-09T11:30:35.230Z,102008.15
2024-05-09T11:33:21.991Z,102008.56
2024-05-09T11:36:09.810Z,102008.92
2024-05-09T11:38:56.235Z,102008.68
2024-05-09T11:41:42.781Z,102007.97
2024-05-09T11:44:29.432Z,102009.91
2024-05-09T11:50:48.409Z,101995.75
2024-05-09T11:53:35.241Z,101994.38
2024-05-09T11:56:22.173Z,101995.98
2024-05-09T11:59:09.474Z,101990.16
2024-05-09T12:01:56.162Z,101992.71
2024-05-09T12:04:43.080Z,101990.58
2024-05-09T12:07:30.844Z,101986.09
2024-05-09T12:10:22.267Z,101987.16
2024-05-09T12:13:12.658Z,101982.38
2024-05-09T12:16:37.782Z,101979.58
2024-05-09T12:19:27.697Z,101982.15
2024-05-09T12:22:14.668Z,101978.52
2024-05-09T12:25:04.624Z,101983.09
2024-05-09T12:27:53.053Z,101984.25
2024-05-09T12:30:41.554Z,101986.70
2024-05-09T12:33:29.891Z,101976.94
2024-05-09T12:36:16.665Z,101974.23
2024-05-09T12:39:06.157Z,101977.25
2024-05-09T12:41:52.576Z,101976.12
2024-05-09T12:44:40.703Z,101974.29
2024-05-09T12:47:27.693Z,101973.23
2024-05-09T12:50:25.236Z,101969.48
2024-05-09T12:53:18.284Z,101973.33
2024-05-09T12:56:07.217Z,101969.19
2024-05-09T13:02:37.267Z,101964.97
2024-05-09T13:05:30.106Z,101961.13
2024-05-09T13:08:17.943Z,101963.86
2024-05-09T13:11:08.452Z,101966.36
2024-05-09T13:14:10.475Z,101968.25
2024-05-09T13:16:57.300Z,101969.38
2024-05-09T13:19:44.254Z,101964.04
2024-05-09T13:22:31.028Z,101959.40
2024-05-09T13:25:17.767Z,101957.02
2024-05-09T13:28:06.710Z,101955.34
2024-05-09T13:30:54.139Z,101957.11
2024-05-09T13:33:40.837Z,101956.09
2024-05-09T13:36:27.423Z,101958.43
2024-05-09T13:39:14.764Z,101962.10
2024-05-09T13:42:01.609Z,101960.21
2024-05-09T13:44:48.385Z,101956.70
2024-05-09T13:47:35.365Z,101953.78
2024-05-09T13:50:30.951Z,101954.48
2024-05-09T13:53:21.838Z,101950.21
2024-05-09T13:56:08.939Z,101951.58
2024-05-09T13:58:55.699Z,101952.62
2024-05-09T14:01:42.513Z,101953.23
2024-05-09T14:04:31.004Z,101950.75
2024-05-09T14:07:17.830Z,101948.41
2024-05-09T14:10:09.024Z,101944.29
2024-05-09T14:12:58.301Z,101945.77
2024-05-09T14:15:46.143Z,101945.76
2024-05-09T14:18:33.048Z,101945.92
2024-05-09T14:21:20.081Z,101945.43
2024-05-09T14:24:06.967Z,101942.20
2024-05-09T14:26:53.711Z,101934.98
2024-05-09T14:29:40.496Z,101933.63
2024-05-09T14:32:27.369Z,101929.41
2024-05-09T14:35:16.329Z,101925.56
2024-05-09T14:38:04.003Z,101925.38
2024-05-09T14:40:58.173Z,101924.36
2024-05-09T14:44:12.464Z,101923.98
2024-05-09T14:46:59.655Z,101923.88
2024-05-09T14:49:47.016Z,101924.65
2024-05-09T14:52:33.804Z,101922.72
2024-05-09T14:55:20.423Z,101922.55
2024-05-09T14:58:08.338Z,101922.00
2024-05-09T15:00:56.489Z,101924.83
2024-05-09T15:03:43.494Z,101922.48
2024-05-09T15:06:30.139Z,101919.98
2024-05-09T15:25:26.974Z,101925.20
2024-05-09T15:28:58.799Z,101926.77
2024-05-09T15:32:40.457Z,101923.81
